sensor_id;sensor_type;location;lat;lon;timestamp;P1;durP1;ratioP1;P2;durP2;ratioP2
38023;SDS011;23834;48.080;11.682;2023-02-28T00:01:29;2.10;;;2.00;;
38023;SDS011;23834;48.080;11.682;2023-02-28T00:03:54;2.37;;;2.17;;
38023;SDS011;23834;48.080;11.682;2023-02-28T00:06:19;3.30;;;2.03;;
38023;SDS011;23834;48.080;11.682;2023-02-28T00:08:45;2.53;;;2.10;;
38023;SDS011;23834;48.080;11.682;2023-02-28T00:11:12;2.30;;;2.10;;
38023;SDS011;23834;48.080;11.682;2023-02-28T00:13:39;2.33;;;2.13;;
38023;SDS011;23834;48.080;11.682;2023-02-28T00:16:05;2.30;;;2.10;;
38023;SDS011;23834;48.080;11.682;2023-02-28T00:18:31;2.50;;;2.10;;
38023;SDS011;23834;48.080;11.682;2023-02-28T00:20:57;2.27;;;2.10;;
38023;SDS011;23834;48.080;11.682;2023-02-28T00:23:22;2.30;;;2.10;;
38023;SDS011;23834;48.080;11.682;2023-02-28T00:25:47;2.47;;;2.20;;
38023;SDS011;23834;48.080;11.682;2023-02-28T00:28:13;2.30;;;1.90;;
38023;SDS011;23834;48.080;11.682;2023-02-28T00:30:38;2.50;;;2.30;;
38023;SDS011;23834;48.080;11.682;2023-02-28T00:33:03;2.70;;;2.50;;
38023;SDS011;23834;48.080;11.682;2023-02-28T00:35:28;2.40;;;2.20;;
38023;SDS011;23834;48.080;11.682;2023-02-28T00:37:53;2.30;;;2.10;;
38023;SDS011;23834;48.080;11.682;2023-02-28T00:40:19;2.03;;;1.93;;
38023;SDS011;23834;48.080;11.682;2023-02-28T00:42:44;2.40;;;2.20;;
38023;SDS011;23834;48.080;11.682;2023-02-28T00:45:09;2.00;;;1.90;;
38023;SDS011;23834;48.080;11.682;2023-02-28T00:47:34;2.10;;;2.00;;
38023;SDS011;23834;48.080;11.682;2023-02-28T00:50:00;2.23;;;2.03;;
38023;SDS011;23834;48.080;11.682;2023-02-28T00:52:25;2.33;;;2.13;;
38023;SDS011;23834;48.080;11.682;2023-02-28T00:54:50;3.03;;;1.97;;
38023;SDS011;23834;48.080;11.682;2023-02-28T00:57:15;2.10;;;2.00;;
38023;SDS011;23834;48.080;11.682;2023-02-28T00:59:40;2.33;;;1.90;;
38023;SDS011;23834;48.080;11.682;2023-02-28T01:02:05;2.40;;;2.20;;
38023;SDS011;23834;48.080;11.682;2023-02-28T01:04:31;2.17;;;1.97;;
38023;SDS011;23834;48.080;11.682;2023-02-28T01:06:56;3.13;;;2.00;;
38023;SDS011;23834;48.080;11.682;2023-02-28T01:09:21;2.70;;;2.50;;
38023;SDS011;23834;48.080;11.682;2023-02-28T01:11:46;2.67;;;2.47;;
38023;SDS011;23834;48.080;11.682;2023-02-28T01:14:12;2.10;;;1.90;;
38023;SDS011;23834;48.080;11.682;2023-02-28T01:16:37;2.33;;;2.23;;
38023;SDS011;23834;48.080;11.682;2023-02-28T01:19:03;2.40;;;2.20;;
38023;SDS011;23834;48.080;11.682;2023-02-28T01:21:28;2.50;;;2.30;;
38023;SDS011;23834;48.080;11.682;2023-02-28T01:23:55;3.23;;;2.40;;
38023;SDS011;23834;48.080;11.682;2023-02-28T01:26:21;2.13;;;1.97;;
38023;SDS011;23834;48.080;11.682;2023-02-28T01:28:47;2.53;;;2.33;;
38023;SDS011;23834;48.080;11.682;2023-02-28T01:31:12;2.73;;;2.40;;
38023;SDS011;23834;48.080;11.682;2023-02-28T01:33:38;2.13;;;1.80;;
38023;SDS011;23834;48.080;11.682;2023-02-28T01:36:04;2.40;;;2.20;;
38023;SDS011;23834;48.080;11.682;2023-02-28T01:38:30;2.27;;;2.00;;
38023;SDS011;23834;48.080;11.682;2023-02-28T01:40:55;2.30;;;2.10;;
38023;SDS011;23834;48.080;11.682;2023-02-28T01:45:46;2.43;;;2.23;;
38023;SDS011;23834;48.080;11.682;2023-02-28T01:48:11;2.30;;;2.10;;
38023;SDS011;23834;48.080;11.682;2023-02-28T01:50:39;2.30;;;2.10;;
38023;SDS011;23834;48.080;11.682;2023-02-28T01:53:05;2.90;;;2.37;;
38023;SDS011;23834;48.080;11.682;2023-02-28T01:55:31;2.40;;;2.20;;
38023;SDS011;23834;48.080;11.682;2023-02-28T01:57:58;2.30;;;2.10;;
38023;SDS011;23834;48.080;11.682;2023-02-28T02:00:25;2.17;;;2.00;;
38023;SDS011;23834;48.080;11.682;2023-02-28T02:02:54;2.20;;;2.10;;
38023;SDS011;23834;48.080;11.682;2023-02-28T02:05:21;2.23;;;2.03;;
38023;SDS011;23834;48.080;11.682;2023-02-28T02:07:48;2.00;;;1.90;;
38023;SDS011;23834;48.080;11.682;2023-02-28T02:10:18;2.30;;;2.10;;
38023;SDS011;23834;48.080;11.682;2023-02-28T02:15:16;1.92;;;1.80;;
38023;SDS011;23834;48.080;11.682;2023-02-28T02:17:43;2.13;;;1.93;;
38023;SDS011;23834;48.080;11.682;2023-02-28T02:35:26;2.10;;;2.00;;
38023;SDS011;23834;48.080;11.682;2023-02-28T02:40:43;2.50;;;2.30;;
38023;SDS011;23834;48.080;11.682;2023-02-28T02:43:25;2.37;;;2.20;;
38023;SDS011;23834;48.080;11.682;2023-02-28T02:45:53;2.17;;;1.97;;
38023;SDS011;23834;48.080;11.682;2023-02-28T02:48:19;2.10;;;1.90;;
38023;SDS011;23834;48.080;11.682;2023-02-28T02:50:59;2.87;;;2.67;;
38023;SDS011;23834;48.080;11.682;2023-02-28T02:53:30;2.70;;;2.50;;
38023;SDS011;23834;48.080;11.682;2023-02-28T02:55:57;2.70;;;2.50;;
38023;SDS011;23834;48.080;11.682;2023-02-28T02:58:26;2.43;;;2.23;;
38023;SDS011;23834;48.080;11.682;2023-02-28T03:00:56;2.40;;;2.20;;
38023;SDS011;23834;48.080;11.682;2023-02-28T03:03:22;2.53;;;2.33;;
38023;SDS011;23834;48.080;11.682;2023-02-28T03:05:54;1.83;;;1.73;;
38023;SDS011;23834;48.080;11.682;2023-02-28T03:08:19;2.20;;;2.10;;
38023;SDS011;23834;48.080;11.682;2023-02-28T03:10:46;2.47;;;2.27;;
38023;SDS011;23834;48.080;11.682;2023-02-28T03:18:15;2.43;;;2.23;;
38023;SDS011;23834;48.080;11.682;2023-02-28T03:21:20;2.40;;;2.20;;
38023;SDS011;23834;48.080;11.682;2023-02-28T03:23:38;3.47;;;2.63;;
38023;SDS011;23834;48.080;11.682;2023-02-28T03:26:08;3.00;;;2.53;;
38023;SDS011;23834;48.080;11.682;2023-02-28T03:28:43;2.40;;;2.20;;
38023;SDS011;23834;48.080;11.682;2023-02-28T03:31:24;2.03;;;1.87;;
38023;SDS011;23834;48.080;11.682;2023-02-28T03:33:54;2.77;;;2.57;;
38023;SDS011;23834;48.080;11.682;2023-02-28T03:36:25;3.33;;;2.40;;
38023;SDS011;23834;48.080;11.682;2023-02-28T03:38:55;2.60;;;2.40;;
38023;SDS011;23834;48.080;11.682;2023-02-28T03:41:24;2.73;;;2.33;;
38023;SDS011;23834;48.080;11.682;2023-02-28T03:43:53;2.20;;;2.10;;
38023;SDS011;23834;48.080;11.682;2023-02-28T03:46:20;2.10;;;2.00;;
38023;SDS011;23834;48.080;11.682;2023-02-28T03:51:35;2.70;;;2.40;;
38023;SDS011;23834;48.080;11.682;2023-02-28T03:54:03;2.63;;;2.40;;
38023;SDS011;23834;48.080;11.682;2023-02-28T03:56:31;2.50;;;2.30;;
38023;SDS011;23834;48.080;11.682;2023-02-28T03:59:12;2.67;;;2.47;;
38023;SDS011;23834;48.080;11.682;2023-02-28T04:04:02;2.65;;;2.45;;
38023;SDS011;23834;48.080;11.682;2023-02-28T04:06:29;2.20;;;2.00;;
38023;SDS011;23834;48.080;11.682;2023-02-28T04:08:55;2.50;;;2.30;;
38023;SDS011;23834;48.080;11.682;2023-02-28T04:11:25;3.10;;;2.30;;
38023;SDS011;23834;48.080;11.682;2023-02-28T04:13:52;2.70;;;2.47;;
38023;SDS011;23834;48.080;11.682;2023-02-28T04:16:17;2.53;;;2.33;;
38023;SDS011;23834;48.080;11.682;2023-02-28T04:18:43;2.60;;;2.40;;
38023;SDS011;23834;48.080;11.682;2023-02-28T04:21:08;2.17;;;2.00;;
38023;SDS011;23834;48.080;11.682;2023-02-28T04:23:34;3.00;;;2.57;;
38023;SDS011;23834;48.080;11.682;2023-02-28T04:25:59;2.50;;;2.30;;
38023;SDS011;23834;48.080;11.682;2023-02-28T04:28:24;2.83;;;2.57;;
38023;SDS011;23834;48.080;11.682;2023-02-28T04:30:56;2.90;;;2.50;;
38023;SDS011;23834;48.080;11.682;2023-02-28T04:33:21;3.27;;;2.97;;
38023;SDS011;23834;48.080;11.682;2023-02-28T04:35:47;3.13;;;2.83;;
38023;SDS011;23834;48.080;11.682;2023-02-28T04:38:12;2.70;;;2.50;;
38023;SDS011;23834;48.080;11.682;2023-02-28T04:40:37;3.10;;;2.90;;
38023;SDS011;23834;48.080;11.682;2023-02-28T04:43:02;2.60;;;2.40;;
38023;SDS011;23834;48.080;11.682;2023-02-28T04:45:28;2.50;;;2.30;;
38023;SDS011;23834;48.080;11.682;2023-02-28T04:47:56;2.77;;;2.50;;
38023;SDS011;23834;48.080;11.682;2023-02-28T04:50:22;2.80;;;2.53;;
38023;SDS011;23834;48.080;11.682;2023-02-28T04:52:47;2.90;;;2.50;;
38023;SDS011;23834;48.080;11.682;2023-02-28T04:55:12;2.60;;;2.30;;
38023;SDS011;23834;48.080;11.682;2023-02-28T04:57:37;2.43;;;2.33;;
38023;SDS011;23834;48.080;11.682;2023-02-28T05:00:02;2.70;;;2.50;;
38023;SDS011;23834;48.080;11.682;2023-02-28T05:02:34;2.90;;;2.70;;
38023;SDS011;23834;48.080;11.682;2023-02-28T05:05:00;2.90;;;2.70;;
38023;SDS011;23834;48.080;11.682;2023-02-28T05:07:25;2.50;;;2.30;;
38023;SDS011;23834;48.080;11.682;2023-02-28T05:09:50;2.90;;;2.60;;
38023;SDS011;23834;48.080;11.682;2023-02-28T05:12:15;3.83;;;3.03;;
38023;SDS011;23834;48.080;11.682;2023-02-28T05:14:41;3.50;;;3.20;;
38023;SDS011;23834;48.080;11.682;2023-02-28T05:17:06;3.20;;;3.00;;
38023;SDS011;23834;48.080;11.682;2023-02-28T05:19:31;3.17;;;2.93;;
38023;SDS011;23834;48.080;11.682;2023-02-28T05:21:56;2.87;;;2.67;;
38023;SDS011;23834;48.080;11.682;2023-02-28T05:24:22;3.10;;;2.90;;
38023;SDS011;23834;48.080;11.682;2023-02-28T05:26:50;3.50;;;3.17;;
38023;SDS011;23834;48.080;11.682;2023-02-28T05:29:16;3.20;;;3.00;;
38023;SDS011;23834;48.080;11.682;2023-02-28T05:31:42;2.90;;;2.70;;
38023;SDS011;23834;48.080;11.682;2023-02-28T05:34:07;3.07;;;2.80;;
38023;SDS011;23834;48.080;11.682;2023-02-28T05:36:32;3.30;;;3.00;;
38023;SDS011;23834;48.080;11.682;2023-02-28T05:38:57;3.27;;;3.00;;
38023;SDS011;23834;48.080;11.682;2023-02-28T05:41:23;4.23;;;3.60;;
38023;SDS011;23834;48.080;11.682;2023-02-28T05:43:48;3.90;;;3.30;;
38023;SDS011;23834;48.080;11.682;2023-02-28T05:46:13;3.80;;;3.30;;
38023;SDS011;23834;48.080;11.682;2023-02-28T05:48:39;3.43;;;3.13;;
38023;SDS011;23834;48.080;11.682;2023-02-28T05:51:05;2.90;;;2.70;;
38023;SDS011;23834;48.080;11.682;2023-02-28T05:53:30;3.30;;;3.10;;
38023;SDS011;23834;48.080;11.682;2023-02-28T05:55:56;2.90;;;2.70;;
38023;SDS011;23834;48.080;11.682;2023-02-28T05:58:21;3.53;;;3.23;;
38023;SDS011;23834;48.080;11.682;2023-02-28T06:00:47;3.73;;;3.43;;
38023;SDS011;23834;48.080;11.682;2023-02-28T06:03:12;3.60;;;3.30;;
38023;SDS011;23834;48.080;11.682;2023-02-28T06:05:37;3.67;;;3.37;;
38023;SDS011;23834;48.080;11.682;2023-02-28T06:08:03;3.63;;;3.33;;
38023;SDS011;23834;48.080;11.682;2023-02-28T06:10:29;3.67;;;3.37;;
38023;SDS011;23834;48.080;11.682;2023-02-28T06:12:54;3.70;;;3.40;;
38023;SDS011;23834;48.080;11.682;2023-02-28T06:15:19;4.30;;;3.60;;
38023;SDS011;23834;48.080;11.682;2023-02-28T06:17:45;4.33;;;3.93;;
38023;SDS011;23834;48.080;11.682;2023-02-28T06:20:11;4.03;;;3.40;;
38023;SDS011;23834;48.080;11.682;2023-02-28T06:22:37;4.23;;;3.93;;
38023;SDS011;23834;48.080;11.682;2023-02-28T06:25:03;3.90;;;3.50;;
38023;SDS011;23834;48.080;11.682;2023-02-28T06:27:29;4.47;;;3.93;;
38023;SDS011;23834;48.080;11.682;2023-02-28T06:29:55;3.93;;;3.53;;
38023;SDS011;23834;48.080;11.682;2023-02-28T06:32:20;3.97;;;3.67;;
38023;SDS011;23834;48.080;11.682;2023-02-28T06:34:46;4.37;;;3.97;;
38023;SDS011;23834;48.080;11.682;2023-02-28T06:37:11;4.87;;;3.50;;
38023;SDS011;23834;48.080;11.682;2023-02-28T06:39:36;4.93;;;3.90;;
38023;SDS011;23834;48.080;11.682;2023-02-28T06:42:01;4.33;;;3.93;;
38023;SDS011;23834;48.080;11.682;2023-02-28T06:44:26;3.90;;;3.60;;
38023;SDS011;23834;48.080;11.682;2023-02-28T06:46:52;3.77;;;3.47;;
38023;SDS011;23834;48.080;11.682;2023-02-28T06:49:17;4.10;;;3.23;;
38023;SDS011;23834;48.080;11.682;2023-02-28T06:51:42;3.53;;;3.20;;
38023;SDS011;23834;48.080;11.682;2023-02-28T06:54:10;5.13;;;4.10;;
38023;SDS011;23834;48.080;11.682;2023-02-28T06:56:35;3.77;;;3.53;;
38023;SDS011;23834;48.080;11.682;2023-02-28T06:59:01;4.77;;;4.00;;
38023;SDS011;23834;48.080;11.682;2023-02-28T07:01:26;5.00;;;4.20;;
38023;SDS011;23834;48.080;11.682;2023-02-28T07:03:52;4.27;;;3.87;;
38023;SDS011;23834;48.080;11.682;2023-02-28T07:06:18;5.80;;;4.57;;
38023;SDS011;23834;48.080;11.682;2023-02-28T07:08:44;4.77;;;4.37;;
38023;SDS011;23834;48.080;11.682;2023-02-28T07:11:09;5.10;;;4.60;;
38023;SDS011;23834;48.080;11.682;2023-02-28T07:13:35;4.50;;;4.10;;
38023;SDS011;23834;48.080;11.682;2023-02-28T07:16:02;7.13;;;5.17;;
38023;SDS011;23834;48.080;11.682;2023-02-28T07:18:28;4.97;;;4.57;;
38023;SDS011;23834;48.080;11.682;2023-02-28T07:20:53;5.37;;;4.83;;
38023;SDS011;23834;48.080;11.682;2023-02-28T07:23:19;4.87;;;4.37;;
38023;SDS011;23834;48.080;11.682;2023-02-28T07:25:44;6.70;;;5.30;;
38023;SDS011;23834;48.080;11.682;2023-02-28T07:28:10;5.17;;;4.77;;
38023;SDS011;23834;48.080;11.682;2023-02-28T07:30:35;5.43;;;4.93;;
38023;SDS011;23834;48.080;11.682;2023-02-28T07:33:01;5.40;;;4.90;;
38023;SDS011;23834;48.080;11.682;2023-02-28T07:35:26;5.90;;;4.90;;
38023;SDS011;23834;48.080;11.682;2023-02-28T07:37:51;5.50;;;5.00;;
38023;SDS011;23834;48.080;11.682;2023-02-28T07:40:16;5.33;;;4.60;;
38023;SDS011;23834;48.080;11.682;2023-02-28T07:42:42;7.20;;;5.37;;
38023;SDS011;23834;48.080;11.682;2023-02-28T07:45:08;4.73;;;4.33;;
38023;SDS011;23834;48.080;11.682;2023-02-28T07:47:36;5.83;;;5.27;;
38023;SDS011;23834;48.080;11.682;2023-02-28T07:50:01;5.23;;;4.73;;
38023;SDS011;23834;48.080;11.682;2023-02-28T07:52:26;5.50;;;4.77;;
38023;SDS011;23834;48.080;11.682;2023-02-28T07:54:52;6.43;;;4.77;;
38023;SDS011;23834;48.080;11.682;2023-02-28T07:57:17;4.90;;;4.40;;
38023;SDS011;23834;48.080;11.682;2023-02-28T07:59:42;6.30;;;5.00;;
38023;SDS011;23834;48.080;11.682;2023-02-28T08:02:17;5.53;;;5.03;;
38023;SDS011;23834;48.080;11.682;2023-02-28T08:04:43;5.60;;;5.00;;
38023;SDS011;23834;48.080;11.682;2023-02-28T08:07:17;6.03;;;4.87;;
38023;SDS011;23834;48.080;11.682;2023-02-28T08:09:42;5.47;;;4.97;;
38023;SDS011;23834;48.080;11.682;2023-02-28T08:12:08;5.40;;;4.80;;
38023;SDS011;23834;48.080;11.682;2023-02-28T08:14:35;5.73;;;5.20;;
38023;SDS011;23834;48.080;11.682;2023-02-28T08:17:00;5.50;;;5.07;;
38023;SDS011;23834;48.080;11.682;2023-02-28T08:19:26;6.47;;;5.60;;
38023;SDS011;23834;48.080;11.682;2023-02-28T08:21:51;5.97;;;5.37;;
38023;SDS011;23834;48.080;11.682;2023-02-28T08:24:16;4.93;;;4.50;;
38023;SDS011;23834;48.080;11.682;2023-02-28T08:26:41;6.67;;;5.20;;
38023;SDS011;23834;48.080;11.682;2023-02-28T08:29:07;6.83;;;5.23;;
38023;SDS011;23834;48.080;11.682;2023-02-28T08:31:32;5.73;;;5.00;;
38023;SDS011;23834;48.080;11.682;2023-02-28T08:33:57;6.10;;;5.57;;
38023;SDS011;23834;48.080;11.682;2023-02-28T08:36:24;5.60;;;5.00;;
38023;SDS011;23834;48.080;11.682;2023-02-28T08:38:50;5.33;;;4.93;;
38023;SDS011;23834;48.080;11.682;2023-02-28T08:41:15;5.63;;;5.00;;
38023;SDS011;23834;48.080;11.682;2023-02-28T08:43:40;5.60;;;5.00;;
38023;SDS011;23834;48.080;11.682;2023-02-28T08:46:05;5.93;;;5.37;;
38023;SDS011;23834;48.080;11.682;2023-02-28T08:48:32;6.57;;;5.93;;
38023;SDS011;23834;48.080;11.682;2023-02-28T08:50:58;5.53;;;5.03;;
38023;SDS011;23834;48.080;11.682;2023-02-28T08:53:23;6.10;;;5.10;;
38023;SDS011;23834;48.080;11.682;2023-02-28T08:55:55;6.80;;;5.83;;
38023;SDS011;23834;48.080;11.682;2023-02-28T08:58:20;5.77;;;5.23;;
38023;SDS011;23834;48.080;11.682;2023-02-28T09:00:45;5.83;;;5.23;;
38023;SDS011;23834;48.080;11.682;2023-02-28T09:03:10;5.93;;;5.20;;
38023;SDS011;23834;48.080;11.682;2023-02-28T09:05:36;5.90;;;5.30;;
38023;SDS011;23834;48.080;11.682;2023-02-28T09:08:01;6.63;;;5.60;;
38023;SDS011;23834;48.080;11.682;2023-02-28T09:10:26;6.50;;;5.80;;
38023;SDS011;23834;48.080;11.682;2023-02-28T09:12:51;5.97;;;4.90;;
38023;SDS011;23834;48.080;11.682;2023-02-28T09:15:17;6.70;;;5.60;;
38023;SDS011;23834;48.080;11.682;2023-02-28T09:17:43;5.97;;;5.30;;
38023;SDS011;23834;48.080;11.682;2023-02-28T09:20:08;5.53;;;5.03;;
38023;SDS011;23834;48.080;11.682;2023-02-28T09:22:34;6.90;;;5.63;;
38023;SDS011;23834;48.080;11.682;2023-02-28T09:24:59;6.27;;;5.77;;
38023;SDS011;23834;48.080;11.682;2023-02-28T09:27:24;5.80;;;5.23;;
38023;SDS011;23834;48.080;11.682;2023-02-28T09:29:49;6.80;;;5.70;;
38023;SDS011;23834;48.080;11.682;2023-02-28T09:32:14;7.10;;;5.43;;
38023;SDS011;23834;48.080;11.682;2023-02-28T09:34:40;5.70;;;5.20;;
38023;SDS011;23834;48.080;11.682;2023-02-28T09:37:05;6.17;;;5.57;;
38023;SDS011;23834;48.080;11.682;2023-02-28T09:39:31;5.50;;;5.00;;
38023;SDS011;23834;48.080;11.682;2023-02-28T09:41:56;5.80;;;5.20;;
38023;SDS011;23834;48.080;11.682;2023-02-28T09:44:27;6.20;;;5.60;;
38023;SDS011;23834;48.080;11.682;2023-02-28T09:46:56;5.97;;;5.37;;
38023;SDS011;23834;48.080;11.682;2023-02-28T09:49:27;6.27;;;5.67;;
38023;SDS011;23834;48.080;11.682;2023-02-28T09:52:10;6.80;;;6.10;;
38023;SDS011;23834;48.080;11.682;2023-02-28T09:54:36;5.87;;;5.37;;
38023;SDS011;23834;48.080;11.682;2023-02-28T10:09:59;6.40;;;5.73;;
38023;SDS011;23834;48.080;11.682;2023-02-28T10:12:26;7.23;;;6.13;;
38023;SDS011;23834;48.080;11.682;2023-02-28T10:14:52;6.90;;;5.70;;
38023;SDS011;23834;48.080;11.682;2023-02-28T10:17:23;6.20;;;5.60;;
38023;SDS011;23834;48.080;11.682;2023-02-28T10:19:59;7.20;;;5.50;;
38023;SDS011;23834;48.080;11.682;2023-02-28T10:22:27;5.57;;;5.07;;
38023;SDS011;23834;48.080;11.682;2023-02-28T10:24:54;6.70;;;6.10;;
38023;SDS011;23834;48.080;11.682;2023-02-28T10:27:25;5.60;;;5.20;;
38023;SDS011;23834;48.080;11.682;2023-02-28T10:32:19;6.75;;;6.10;;
38023;SDS011;23834;48.080;11.682;2023-02-28T10:34:50;5.93;;;5.43;;
38023;SDS011;23834;48.080;11.682;2023-02-28T10:37:16;6.90;;;5.70;;
38023;SDS011;23834;48.080;11.682;2023-02-28T10:39:43;6.40;;;5.80;;
38023;SDS011;23834;48.080;11.682;2023-02-28T10:44:44;7.03;;;6.33;;
38023;SDS011;23834;48.080;11.682;2023-02-28T10:47:16;7.00;;;6.20;;
38023;SDS011;23834;48.080;11.682;2023-02-28T10:49:48;6.97;;;6.27;;
38023;SDS011;23834;48.080;11.682;2023-02-28T10:52:14;6.13;;;5.63;;
38023;SDS011;23834;48.080;11.682;2023-02-28T10:55:13;6.50;;;5.87;;
38023;SDS011;23834;48.080;11.682;2023-02-28T10:57:38;5.73;;;5.20;;
38023;SDS011;23834;48.080;11.682;2023-02-28T11:00:17;7.10;;;6.47;;
38023;SDS011;23834;48.080;11.682;2023-02-28T11:02:43;6.57;;;5.97;;
38023;SDS011;23834;48.080;11.682;2023-02-28T11:05:32;7.43;;;6.63;;
38023;SDS011;23834;48.080;11.682;2023-02-28T11:07:56;6.60;;;5.90;;
38023;SDS011;23834;48.080;11.682;2023-02-28T11:10:23;6.90;;;6.20;;
38023;SDS011;23834;48.080;11.682;2023-02-28T11:12:50;6.83;;;6.23;;
38023;SDS011;23834;48.080;11.682;2023-02-28T11:15:23;7.77;;;7.07;;
38023;SDS011;23834;48.080;11.682;2023-02-28T11:17:53;7.37;;;6.77;;
38023;SDS011;23834;48.080;11.682;2023-02-28T11:20:21;6.43;;;5.87;;
38023;SDS011;23834;48.080;11.682;2023-02-28T11:22:48;6.50;;;5.90;;
38023;SDS011;23834;48.080;11.682;2023-02-28T11:25:49;6.20;;;5.60;;
38023;SDS011;23834;48.080;11.682;2023-02-28T11:28:23;6.10;;;5.60;;
38023;SDS011;23834;48.080;11.682;2023-02-28T11:30:59;5.30;;;4.80;;
38023;SDS011;23834;48.080;11.682;2023-02-28T11:33:29;6.90;;;5.67;;
38023;SDS011;23834;48.080;11.682;2023-02-28T11:35:58;6.47;;;5.87;;
38023;SDS011;23834;48.080;11.682;2023-02-28T11:38:25;6.23;;;5.10;;
38023;SDS011;23834;48.080;11.682;2023-02-28T11:43:19;5.93;;;5.43;;
38023;SDS011;23834;48.080;11.682;2023-02-28T11:46:06;6.27;;;5.73;;
38023;SDS011;23834;48.080;11.682;2023-02-28T11:48:36;6.20;;;5.60;;
38023;SDS011;23834;48.080;11.682;2023-02-28T11:58:42;7.40;;;6.13;;
38023;SDS011;23834;48.080;11.682;2023-02-28T12:06:22;8.47;;;6.43;;
38023;SDS011;23834;48.080;11.682;2023-02-28T12:16:40;7.10;;;6.40;;
38023;SDS011;23834;48.080;11.682;2023-02-28T12:26:46;6.87;;;6.27;;
38023;SDS011;23834;48.080;11.682;2023-02-28T12:29:31;6.90;;;6.20;;
38023;SDS011;23834;48.080;11.682;2023-02-28T12:32:15;6.53;;;6.03;;
38023;SDS011;23834;48.080;11.682;2023-02-28T12:34:43;6.83;;;6.13;;
38023;SDS011;23834;48.080;11.682;2023-02-28T12:37:14;6.70;;;6.10;;
38023;SDS011;23834;48.080;11.682;2023-02-28T12:39:44;7.30;;;6.50;;
38023;SDS011;23834;48.080;11.682;2023-02-28T12:42:10;6.63;;;6.13;;
38023;SDS011;23834;48.080;11.682;2023-02-28T12:44:44;7.23;;;6.60;;
38023;SDS011;23834;48.080;11.682;2023-02-28T12:47:13;6.63;;;5.90;;
38023;SDS011;23834;48.080;11.682;2023-02-28T12:49:42;6.33;;;5.83;;
38023;SDS011;23834;48.080;11.682;2023-02-28T12:52:10;6.10;;;5.60;;
38023;SDS011;23834;48.080;11.682;2023-02-28T12:54:39;6.30;;;5.70;;
38023;SDS011;23834;48.080;11.682;2023-02-28T12:59:52;6.90;;;6.20;;
38023;SDS011;23834;48.080;11.682;2023-02-28T13:04:53;6.33;;;5.83;;
38023;SDS011;23834;48.080;11.682;2023-02-28T13:07:34;7.27;;;6.13;;
38023;SDS011;23834;48.080;11.682;2023-02-28T13:10:02;6.60;;;6.00;;
38023;SDS011;23834;48.080;11.682;2023-02-28T13:12:28;6.70;;;6.10;;
38023;SDS011;23834;48.080;11.682;2023-02-28T13:15:01;6.70;;;6.20;;
38023;SDS011;23834;48.080;11.682;2023-02-28T13:17:27;7.27;;;6.57;;
38023;SDS011;23834;48.080;11.682;2023-02-28T13:24:46;7.07;;;5.70;;
38023;SDS011;23834;48.080;11.682;2023-02-28T13:27:19;6.80;;;6.13;;
38023;SDS011;23834;48.080;11.682;2023-02-28T13:29:49;7.07;;;6.37;;
38023;SDS011;23834;48.080;11.682;2023-02-28T13:42:23;6.27;;;5.70;;
38023;SDS011;23834;48.080;11.682;2023-02-28T13:49:54;6.10;;;5.60;;
38023;SDS011;23834;48.080;11.682;2023-02-28T13:52:22;6.57;;;5.97;;
38023;SDS011;23834;48.080;11.682;2023-02-28T13:57:30;6.43;;;5.82;;
38023;SDS011;23834;48.080;11.682;2023-02-28T14:05:21;5.70;;;5.20;;
38023;SDS011;23834;48.080;11.682;2023-02-28T14:07:51;6.30;;;5.70;;
38023;SDS011;23834;48.080;11.682;2023-02-28T14:10:25;7.47;;;6.30;;
38023;SDS011;23834;48.080;11.682;2023-02-28T14:18:05;5.67;;;5.17;;
38023;SDS011;23834;48.080;11.682;2023-02-28T14:20:36;6.50;;;5.90;;
38023;SDS011;23834;48.080;11.682;2023-02-28T14:33:18;5.87;;;5.37;;
38023;SDS011;23834;48.080;11.682;2023-02-28T14:38:25;6.23;;;5.50;;
38023;SDS011;23834;48.080;11.682;2023-02-28T14:40:52;6.80;;;6.20;;
38023;SDS011;23834;48.080;11.682;2023-02-28T14:43:23;5.93;;;5.43;;
38023;SDS011;23834;48.080;11.682;2023-02-28T14:45:53;5.90;;;5.40;;
38023;SDS011;23834;48.080;11.682;2023-02-28T14:48:19;5.63;;;5.13;;
38023;SDS011;23834;48.080;11.682;2023-02-28T14:50:49;6.40;;;5.80;;
38023;SDS011;23834;48.080;11.682;2023-02-28T14:53:15;6.23;;;5.63;;
38023;SDS011;23834;48.080;11.682;2023-02-28T14:55:44;6.47;;;5.83;;
38023;SDS011;23834;48.080;11.682;2023-02-28T14:58:25;6.53;;;5.93;;
38023;SDS011;23834;48.080;11.682;2023-02-28T15:00:52;6.67;;;6.07;;
38023;SDS011;23834;48.080;11.682;2023-02-28T15:03:28;6.20;;;5.70;;
38023;SDS011;23834;48.080;11.682;2023-02-28T15:05:55;6.23;;;5.73;;
38023;SDS011;23834;48.080;11.682;2023-02-28T15:08:22;6.33;;;5.83;;
38023;SDS011;23834;48.080;11.682;2023-02-28T15:10:51;6.43;;;5.90;;
38023;SDS011;23834;48.080;11.682;2023-02-28T15:13:18;5.47;;;5.00;;
38023;SDS011;23834;48.080;11.682;2023-02-28T15:16:17;5.93;;;5.33;;
38023;SDS011;23834;48.080;11.682;2023-02-28T15:21:07;6.30;;;5.80;;
38023;SDS011;23834;48.080;11.682;2023-02-28T15:23:36;5.90;;;5.40;;
38023;SDS011;23834;48.080;11.682;2023-02-28T15:26:01;5.97;;;5.47;;
38023;SDS011;23834;48.080;11.682;2023-02-28T15:28:27;6.17;;;5.67;;
38023;SDS011;23834;48.080;11.682;2023-02-28T15:31:00;6.97;;;6.37;;
38023;SDS011;23834;48.080;11.682;2023-02-28T15:33:29;6.10;;;5.60;;
38023;SDS011;23834;48.080;11.682;2023-02-28T15:38:33;6.17;;;5.30;;
38023;SDS011;23834;48.080;11.682;2023-02-28T15:40:58;6.13;;;5.60;;
38023;SDS011;23834;48.080;11.682;2023-02-28T15:43:27;5.23;;;4.83;;
38023;SDS011;23834;48.080;11.682;2023-02-28T15:45:57;6.20;;;5.73;;
38023;SDS011;23834;48.080;11.682;2023-02-28T15:50:50;6.47;;;5.88;;
38023;SDS011;23834;48.080;11.682;2023-02-28T15:53:17;6.00;;;5.33;;
38023;SDS011;23834;48.080;11.682;2023-02-28T15:55:44;6.07;;;5.47;;
38023;SDS011;23834;48.080;11.682;2023-02-28T15:58:09;5.83;;;5.30;;
38023;SDS011;23834;48.080;11.682;2023-02-28T16:00:37;6.10;;;5.50;;
38023;SDS011;23834;48.080;11.682;2023-02-28T16:03:21;6.10;;;5.40;;
38023;SDS011;23834;48.080;11.682;2023-02-28T16:06:06;5.73;;;5.13;;
38023;SDS011;23834;48.080;11.682;2023-02-28T16:08:31;5.90;;;5.40;;
38023;SDS011;23834;48.080;11.682;2023-02-28T16:10:56;6.40;;;5.73;;
38023;SDS011;23834;48.080;11.682;2023-02-28T16:13:21;5.63;;;5.13;;
38023;SDS011;23834;48.080;11.682;2023-02-28T16:15:47;5.50;;;5.00;;
38023;SDS011;23834;48.080;11.682;2023-02-28T16:18:14;6.17;;;5.57;;
38023;SDS011;23834;48.080;11.682;2023-02-28T16:20:39;5.77;;;5.30;;
38023;SDS011;23834;48.080;11.682;2023-02-28T16:23:04;5.43;;;5.00;;
38023;SDS011;23834;48.080;11.682;2023-02-28T16:25:36;5.27;;;4.77;;
38023;SDS011;23834;48.080;11.682;2023-02-28T16:28:03;5.43;;;5.00;;
38023;SDS011;23834;48.080;11.682;2023-02-28T16:30:29;5.67;;;5.17;;
38023;SDS011;23834;48.080;11.682;2023-02-28T16:32:57;6.30;;;5.70;;
38023;SDS011;23834;48.080;11.682;2023-02-28T16:35:22;5.63;;;5.13;;
38023;SDS011;23834;48.080;11.682;2023-02-28T16:37:49;5.57;;;5.03;;
38023;SDS011;23834;48.080;11.682;2023-02-28T16:40:18;5.50;;;5.00;;
38023;SDS011;23834;48.080;11.682;2023-02-28T16:42:46;5.87;;;5.20;;
38023;SDS011;23834;48.080;11.682;2023-02-28T16:45:15;5.47;;;4.97;;
38023;SDS011;23834;48.080;11.682;2023-02-28T16:47:41;5.40;;;4.90;;
38023;SDS011;23834;48.080;11.682;2023-02-28T16:50:17;5.60;;;5.10;;
38023;SDS011;23834;48.080;11.682;2023-02-28T16:52:42;5.40;;;4.90;;
38023;SDS011;23834;48.080;11.682;2023-02-28T16:55:07;5.90;;;4.93;;
38023;SDS011;23834;48.080;11.682;2023-02-28T16:57:33;6.83;;;5.20;;